createdAt,value
2022-12-08T00:01:06.683Z,-0.05
2022-12-08T00:11:15.458Z,0.03
2022-12-08T00:21:17.610Z,0.07
2022-12-08T00:31:19.982Z,0.01
2022-12-08T00:41:43.607Z,0.24
2022-12-08T00:51:46.002Z,0.23
2022-12-08T01:01:48.699Z,0.21
2022-12-08T01:11:50.847Z,0.20
2022-12-08T01:21:53.057Z,0.31
2022-12-08T01:31:55.286Z,0.38
2022-12-08T01:41:57.448Z,0.38
2022-12-08T01:51:59.555Z,0.22
2022-12-08T02:02:02.118Z,-0.02
2022-12-08T02:12:04.647Z,-0.32
2022-12-08T02:22:20.384Z,-0.53
2022-12-08T02:32:36.081Z,-0.73
2022-12-08T02:43:07.151Z,-0.88
2022-12-08T03:03:41.714Z,-1.14
2022-12-08T03:13:52.507Z,-1.12
2022-12-08T03:23:57.567Z,-1.02
2022-12-08T03:34:03.319Z,-0.98
2022-12-08T03:44:05.603Z,-0.99
2022-12-08T03:54:07.738Z,-1.13
2022-12-08T04:04:09.935Z,-1.19
2022-12-08T04:14:12.104Z,-1.25
2022-12-08T04:24:14.277Z,-1.31
2022-12-08T04:34:16.867Z,-1.42
2022-12-08T04:44:19.325Z,-1.52
2022-12-08T04:54:21.481Z,-1.57
2022-12-08T05:04:23.770Z,-1.65
2022-12-08T05:14:26.018Z,-1.69
2022-12-08T05:24:28.207Z,-1.73
2022-12-08T05:34:30.366Z,-1.82
2022-12-08T05:44:32.615Z,-1.85
2022-12-08T05:54:34.782Z,-1.64
2022-12-08T06:04:37.064Z,-1.69
2022-12-08T06:14:40.110Z,-1.56
2022-12-08T06:24:42.280Z,-1.56
2022-12-08T06:34:44.558Z,-1.31
2022-12-08T06:44:47.043Z,-1.14
2022-12-08T06:54:49.347Z,-0.70
2022-12-08T07:04:51.893Z,-0.55
2022-12-08T07:14:54.038Z,-0.40
2022-12-08T07:24:56.245Z,-0.28
2022-12-08T07:34:58.443Z,0.06
2022-12-08T07:45:00.945Z,0.25
2022-12-08T07:55:03.161Z,0.29
2022-12-08T08:05:06.409Z,0.44
2022-12-08T08:15:09.555Z,0.52
2022-12-08T08:25:12.013Z,0.75
2022-12-08T08:35:14.509Z,1.03
2022-12-08T08:45:17.084Z,1.04
2022-12-08T08:55:19.564Z,1.16
2022-12-08T09:05:21.765Z,1.28
2022-12-08T09:15:24.136Z,1.33
2022-12-08T09:25:26.323Z,1.63
2022-12-08T09:35:28.569Z,2.00
2022-12-08T09:45:34.837Z,2.00
2022-12-08T09:55:39.292Z,2.05
2022-12-08T10:05:49.827Z,2.46
2022-12-08T10:16:19.123Z,2.92
2022-12-08T10:26:24.765Z,2.93
2022-12-08T10:36:49.283Z,2.63
2022-12-08T10:46:51.621Z,2.39
2022-12-08T10:56:56.363Z,2.25
2022-12-08T11:06:58.650Z,2.21
2022-12-08T11:17:08.535Z,2.29
2022-12-08T11:27:10.844Z,2.51
2022-12-08T11:37:29.924Z,2.15
2022-12-08T11:47:55.939Z,2.48
2022-12-08T11:58:24.044Z,2.76
2022-12-08T12:09:03.748Z,2.65
2022-12-08T12:19:14.424Z,2.52
2022-12-08T12:29:20.466Z,2.45
2022-12-08T12:39:29.320Z,2.24
2022-12-08T12:49:40.505Z,2.05
2022-12-08T13:00:08.804Z,1.98
2022-12-08T13:10:21.985Z,1.92
2022-12-08T13:20:25.211Z,1.83
2022-12-08T13:30:50.402Z,1.58
2022-12-08T13:40:54.532Z,1.49
2022-12-08T14:01:37.099Z,1.39
2022-12-08T14:11:43.736Z,1.29
2022-12-08T14:22:14.172Z,1.12
2022-12-08T14:32:39.094Z,1.14
2022-12-08T14:42:51.329Z,1.21
2022-12-08T14:52:53.720Z,1.03
2022-12-08T15:02:56.465Z,0.65
2022-12-08T15:13:09.639Z,0.03
2022-12-08T15:23:21.387Z,0.25
2022-12-08T15:33:23.649Z,0.34
2022-12-08T15:43:25.975Z,0.34
2022-12-08T15:53:28.294Z,0.37
2022-12-08T16:14:00.867Z,0.50
2022-12-08T16:24:16.229Z,0.78
2022-12-08T16:34:18.432Z,0.81
2022-12-08T16:44:20.650Z,0.89
2022-12-08T16:54:22.833Z,0.73
2022-12-08T17:04:32.600Z,0.48
2022-12-08T17:14:35.592Z,0.79
2022-12-08T17:24:38.223Z,0.88
2022-12-08T17:34:40.480Z,0.92
2022-12-08T17:44:42.757Z,0.84
2022-12-08T17:54:44.925Z,0.91
2022-12-08T18:04:47.655Z,0.63
2022-12-08T18:14:49.921Z,0.57
2022-12-08T18:24:52.129Z,0.59
2022-12-08T18:34:54.450Z,0.26
2022-12-08T18:45:04.375Z,0.30
2022-12-08T18:55:07.661Z,0.41
2022-12-08T19:05:12.413Z,0.14
2022-12-08T19:15:14.628Z,-0.06
2022-12-08T19:25:16.924Z,-0.06
2022-12-08T19:35:19.228Z,-0.14
2022-12-08T19:45:22.181Z,-0.20
2022-12-08T19:55:25.133Z,-0.44
2022-12-08T20:05:27.603Z,-0.87
2022-12-08T20:15:29.899Z,-1.19
2022-12-08T20:25:32.255Z,-1.31
2022-12-08T20:35:34.549Z,-1.37
2022-12-08T20:45:36.776Z,-1.22
2022-12-08T20:55:41.952Z,-0.88
2022-12-08T21:05:48.985Z,-0.84
2022-12-08T21:15:51.487Z,-0.74
2022-12-08T21:25:53.979Z,-0.68
2022-12-08T21:40:11.288Z,-0.68
2022-12-08T21:50:15.352Z,-0.84
2022-12-08T22:00:18.543Z,-0.85
2022-12-08T22:10:21.225Z,-1.05
2022-12-08T22:20:23.793Z,-0.97
2022-12-08T22:30:26.037Z,-0.89
2022-12-08T22:40:28.354Z,-0.91
2022-12-08T22:50:30.591Z,-1.11
2022-12-08T23:00:32.874Z,-1.46
2022-12-08T23:10:36.267Z,-1.59
2022-12-08T23:20:38.762Z,-1.64
2022-12-08T23:30:41.821Z,-1.61
2022-12-08T23:40:44.566Z,-1.57
2022-12-08T23:50:47.180Z,-1.50
